Mocamedes, Namibe Airport (FNMO)

NameNamibe Airport
CityMocamedes
CountryAngola
ICAOFNMO
IATAMSZ
Altitude64 m
CoordinatesGoogle Map
Live Air TrafficLiveATC.net
METARFNMO 070900Z 26010KT 9999 FEW016 23/16 Q1010
2018-12-07 09:00:00 Wind: West-Southwest (260°) 5.14 m/s - Visibility: > 10000 m - Temperature: 23 °C - Dew point: 16 °C - Humidity: 64.8% - Pressure: 1010 hPa
Statistics

The table below shows the detailed information of all flights to/from Mocamedes, Namibe Airport (FNMO).